ADDS METAR Data INFO
IDs: Format: Raw Decoded Include TAF

Data at: 1320 UTC 19 Jul 2018

KEUG 191309Z 34006KT 10SM BKN020 11/11 A3017 RMK AO2 T01110106
KEUG 191254Z 34006KT 10SM SCT025 11/10 A3017 RMK AO2 SLP216 T01060100
KEUG 191154Z AUTO 33007KT 10SM CLR 12/11 A3016 RMK AO2 SLP210 T01170106 10189 20111 51011
KEUG 191054Z AUTO 00000KT 10SM CLR 12/11 A3015 RMK AO2 SLP207 T01220106
KEUG 190954Z AUTO 34004KT 10SM CLR 13/11 A3014 RMK AO2 SLP203 T01330111
KEUG 190854Z AUTO 35003KT 10SM CLR 14/11 A3013 RMK AO2 SLP199 T01440111 53003
KEUG 190754Z AUTO 34005KT 10SM CLR 16/12 A3012 RMK AO2 SLP198 T01560117 403110100
KEUG 190654Z AUTO 03006KT 10SM CLR 17/12 A3012 RMK AO2 SLP196 T01720122
KEUG 190554Z 06007KT 10SM CLR 18/13 A3012 RMK AO2 SLP197 T01830128 10311 20178 51014
KEUG 190454Z 00000KT 10SM CLR 21/14 A3011 RMK AO2 SLP195 T02110139
KEUG 190354Z 33006KT 10SM CLR 24/14 A3008 RMK AO2 WSHFT 0250 SLP185 T02390144
KEUG 190310Z 33012KT 10SM CLR 27/14 A3008 RMK AO2 WSHFT 0250 T02720144
KEUG 190254Z 34011KT 10SM CLR 28/14 A3007 RMK AO2 SLP182 T02830144 56009
KEUG 190154Z 36011KT 10SM FEW050 30/13 A3008 RMK AO2 SLP183 T03000133
KEUG 190054Z 02011KT 10SM FEW050 31/13 A3009 RMK AO2 SLP188 T03060128
KEUG 182354Z 04012KT 10SM FEW035 31/12 A3010 RMK AO2 SLP191 T03110117 10311 20217 56020
KEUG 182254Z 03012G17KT 10SM FEW035 31/12 A3012 RMK AO2 SLP197 T03060117
KEUG 182154Z 01011G19KT 10SM FEW030 29/12 A3014 RMK AO2 SLP205 T02940122
KEUG 182054Z 03011KT 10SM FEW030 29/12 A3016 RMK AO2 SLP211 T02890122 58014
KEUG 181954Z 35008KT 10SM FEW020 27/13 A3018 RMK AO2 SLP218 T02720133
KEUG 181854Z 36009KT 10SM FEW020 25/14 A3019 RMK AO2 SLP221 T02500139
KEUG 181754Z 01009KT 10SM CLR 22/13 A3020 RMK AO2 SLP227 T02170133 10222 20100 58004
KEUG 181654Z 36007KT 10SM FEW018 20/13 A3022 RMK AO2 SLP231 T02000133
KEUG 181625Z 36005KT 10SM SCT017 19/13 A3022 RMK AO2 T01890133
KEUG 181554Z 36009KT 10SM BKN015 18/13 A3022 RMK AO2 SLP233 T01830133
KEUG 181518Z 01006KT 10SM BKN018 16/13 A3022 RMK AO2 T01610133
KEUG 181454Z 36006KT 10SM SCT020 16/13 A3022 RMK AO2 SLP230 T01610128 53015
KEUG 181354Z 00000KT 10SM FEW015 13/13 A3020 RMK AO2 SLP224 T01330128
KEUG 181254Z 31003KT 10SM R16R/3500VP6000FT MIFG FEW010 11/11 A3018 RMK AO2 SLP218 T01060106
KEUG 181154Z AUTO 00000KT 10SM CLR 12/11 A3017 RMK AO2 SLP215 T01170106 10172 20111 53012
KEUG 181054Z AUTO 00000KT 10SM CLR 12/12 A3016 RMK AO2 SLP209 T01220117
KEUG 180954Z AUTO 10003KT 10SM CLR 12/11 A3015 RMK AO2 SLP207 T01220111
KEUG 180854Z AUTO 07003KT 10SM CLR 13/12 A3014 RMK AO2 SLP203 T01330122 51016
KEUG 180754Z AUTO 07003KT 10SM CLR 14/12 A3012 RMK AO2 SLP198 T01390117 403330128
KEUG 180654Z AUTO 08003KT 10SM CLR 14/12 A3011 RMK AO2 SLP194 T01440117
KEUG 180554Z 07004KT 10SM CLR 17/10 A3009 RMK AO2 SLP188 T01670100 10328 20167 51020
KEUG 180454Z 00000KT 10SM CLR 20/11 A3007 RMK AO2 SLP182 T02000106
KEUG 180354Z 33004KT 10SM CLR 23/11 A3005 RMK AO2 SLP174 T02280111
KEUG 180254Z 33006KT 10SM CLR 28/11 A3003 RMK AO2 SLP167 T02780111 53006
KEUG 180154Z VRB06G14KT 10SM CLR 31/11 A3001 RMK AO2 SLP162 T03060106